createdAt,value
2023-03-05T00:01:10.602Z,99.90
2023-03-05T00:03:39.272Z,99.90
2023-03-05T00:06:08.652Z,99.90
2023-03-05T00:08:38.673Z,99.90
2023-03-05T00:11:09.845Z,99.90
2023-03-05T00:13:39.076Z,99.90
2023-03-05T00:16:09.210Z,99.90
2023-03-05T00:18:38.656Z,99.90
2023-03-05T00:21:15.275Z,99.90
2023-03-05T00:23:45.311Z,99.90
2023-03-05T00:26:13.834Z,99.90
2023-03-05T00:28:42.357Z,99.90
2023-03-05T00:31:10.925Z,99.90
2023-03-05T00:33:39.408Z,99.90
2023-03-05T00:36:09.038Z,99.90
2023-03-05T00:38:37.580Z,99.90
2023-03-05T00:41:07.499Z,99.90
2023-03-05T00:43:35.937Z,99.90
2023-03-05T00:46:04.629Z,99.90
2023-03-05T00:48:33.182Z,99.90
2023-03-05T00:51:01.763Z,99.90
2023-03-05T00:53:30.347Z,99.90
2023-03-05T00:55:59.059Z,99.90
2023-03-05T00:58:29.499Z,99.90
2023-03-05T01:01:00.136Z,99.90
2023-03-05T01:03:28.678Z,99.90
2023-03-05T01:05:58.418Z,99.90
2023-03-05T01:08:27.833Z,99.90
2023-03-05T01:10:56.301Z,99.90
2023-03-05T01:13:24.750Z,99.90
2023-03-05T01:15:54.620Z,99.90
2023-03-05T01:18:23.319Z,99.90
2023-03-05T01:20:51.824Z,99.90
2023-03-05T01:23:20.396Z,99.90
2023-03-05T01:25:54.798Z,99.90
2023-03-05T01:28:23.300Z,99.90
2023-03-05T01:30:51.735Z,99.90
2023-03-05T01:33:21.540Z,99.90
2023-03-05T01:35:50.380Z,99.90
2023-03-05T01:38:19.080Z,99.90
2023-03-05T01:40:47.547Z,99.90
2023-03-05T01:43:27.388Z,99.90
2023-03-05T01:46:29.032Z,99.90
2023-03-05T01:49:05.702Z,99.90
2023-03-05T01:51:37.188Z,99.90
2023-03-05T01:54:07.148Z,99.90
2023-03-05T01:56:35.714Z,99.90
2023-03-05T01:59:04.682Z,99.90
2023-03-05T02:01:37.102Z,99.90
2023-03-05T02:04:08.837Z,99.90
2023-03-05T02:06:37.481Z,99.90
2023-03-05T02:09:06.223Z,99.90
2023-03-05T02:11:35.133Z,99.90
2023-03-05T02:14:04.308Z,99.90
2023-03-05T02:16:36.920Z,99.90
2023-03-05T02:19:18.897Z,99.90
2023-03-05T02:21:49.929Z,99.90
2023-03-05T02:24:19.825Z,99.90
2023-03-05T02:26:48.656Z,99.90
2023-03-05T02:29:20.084Z,99.90
2023-03-05T02:31:48.595Z,99.90
2023-03-05T02:34:17.214Z,99.90
2023-03-05T02:36:45.707Z,99.90
2023-03-05T02:39:15.560Z,99.90
2023-03-05T02:41:44.365Z,99.90
2023-03-05T02:44:12.842Z,99.90
2023-03-05T02:46:41.354Z,99.90
2023-03-05T02:49:09.944Z,99.90
2023-03-05T02:51:38.590Z,99.90
2023-03-05T02:54:07.019Z,99.90
2023-03-05T02:56:38.235Z,99.90
2023-03-05T02:59:06.926Z,99.90
2023-03-05T03:01:35.470Z,99.90
2023-03-05T03:04:04.021Z,99.90
2023-03-05T03:06:32.478Z,99.90
2023-03-05T03:09:00.936Z,99.90
2023-03-05T03:11:29.460Z,99.90
2023-03-05T03:14:00.249Z,99.90
2023-03-05T03:16:28.872Z,99.90
2023-03-05T03:18:57.327Z,99.90
2023-03-05T03:21:26.944Z,99.90
2023-03-05T03:23:55.386Z,99.90
2023-03-05T03:26:23.787Z,99.90
2023-03-05T03:28:52.223Z,99.90
2023-03-05T03:31:22.084Z,99.90
2023-03-05T03:33:50.721Z,99.90
2023-03-05T03:36:19.131Z,99.90
2023-03-05T03:38:47.535Z,99.90
2023-03-05T03:41:16.202Z,99.90
2023-03-05T03:43:44.613Z,99.90
2023-03-05T03:46:13.124Z,99.90
2023-03-05T03:48:42.984Z,99.90
2023-03-05T03:51:11.418Z,99.90
2023-03-05T03:53:39.836Z,99.90
2023-03-05T03:56:08.772Z,99.90
2023-03-05T03:58:37.177Z,99.90
2023-03-05T04:01:05.933Z,99.90
2023-03-05T04:03:34.451Z,99.90
2023-03-05T04:06:04.583Z,99.90
2023-03-05T04:08:33.053Z,99.90
2023-03-05T04:11:02.243Z,99.90
2023-03-05T04:13:30.714Z,99.90
2023-03-05T04:15:59.193Z,99.90
2023-03-05T04:18:27.707Z,99.90
2023-03-05T04:20:56.284Z,99.90
2023-03-05T04:23:26.366Z,99.90
2023-03-05T04:25:54.857Z,99.90
2023-03-05T04:28:23.371Z,99.90
2023-03-05T04:30:51.970Z,99.90
2023-03-05T04:33:20.439Z,99.90
2023-03-05T04:35:48.951Z,99.90
2023-03-05T04:38:17.456Z,99.90
2023-03-05T04:40:47.354Z,99.90
2023-03-05T04:43:15.984Z,99.90
2023-03-05T04:45:45.109Z,99.90
2023-03-05T04:48:13.947Z,99.90
2023-03-05T04:50:42.419Z,99.90
2023-03-05T04:53:10.925Z,99.90
2023-03-05T04:55:39.441Z,99.90
2023-03-05T04:58:09.347Z,99.90
2023-03-05T05:00:38.066Z,99.90
2023-03-05T05:03:06.700Z,99.90
2023-03-05T05:05:35.231Z,99.90
2023-03-05T05:08:03.939Z,99.90
2023-03-05T05:10:32.390Z,99.90
2023-03-05T05:13:00.843Z,99.90
2023-03-05T05:15:30.703Z,99.90
2023-03-05T05:17:59.962Z,99.90
2023-03-05T05:20:28.390Z,99.90
2023-03-05T05:22:56.843Z,99.90
2023-03-05T05:25:25.352Z,99.90
2023-03-05T05:27:53.865Z,99.90
2023-03-05T05:30:22.321Z,99.90
2023-03-05T05:32:52.087Z,99.90
2023-03-05T05:35:20.664Z,99.90
2023-03-05T05:37:49.785Z,99.90
2023-03-05T05:40:18.439Z,99.90
2023-03-05T05:42:46.853Z,99.90
2023-03-05T05:45:15.638Z,99.90
2023-03-05T05:47:44.071Z,99.90
2023-03-05T05:50:16.592Z,99.90
2023-03-05T05:52:45.005Z,99.90
2023-03-05T05:55:14.067Z,99.90
2023-03-05T05:57:42.518Z,99.90
2023-03-05T06:00:13.643Z,99.90
2023-03-05T06:02:42.588Z,99.90
2023-03-05T06:05:15.941Z,99.90
2023-03-05T06:07:44.409Z,99.90
2023-03-05T06:10:13.258Z,99.90
2023-03-05T06:12:41.684Z,99.90
2023-03-05T06:15:10.848Z,99.90
2023-03-05T06:17:39.408Z,99.90
2023-03-05T06:20:09.679Z,99.90
2023-03-05T06:22:39.955Z,99.90
2023-03-05T06:25:10.056Z,99.90
2023-03-05T06:27:38.981Z,99.90
2023-03-05T06:30:09.193Z,99.90
2023-03-05T06:32:37.660Z,99.90
2023-03-05T06:35:06.927Z,99.90
2023-03-05T06:37:35.362Z,99.90
2023-03-05T06:40:07.719Z,99.90
2023-03-05T06:42:36.240Z,99.90
2023-03-05T06:45:05.543Z,99.90
2023-03-05T06:47:35.096Z,99.90
2023-03-05T06:50:03.571Z,99.90
2023-03-05T06:52:32.276Z,99.90
2023-03-05T06:55:00.837Z,99.90
2023-03-05T06:57:30.733Z,99.90
2023-03-05T06:59:59.174Z,99.90
2023-03-05T07:02:27.680Z,99.90
2023-03-05T07:04:56.114Z,99.90
2023-03-05T07:07:24.549Z,99.90
2023-03-05T07:09:53.766Z,99.90
2023-03-05T07:12:22.255Z,99.90
2023-03-05T07:14:52.262Z,99.90
2023-03-05T07:17:20.740Z,99.90
2023-03-05T07:19:49.220Z,99.90
2023-03-05T07:22:17.710Z,99.90
2023-03-05T07:24:46.274Z,99.90
2023-03-05T07:27:14.805Z,99.90
2023-03-05T07:29:43.264Z,99.90
2023-03-05T07:32:13.150Z,99.90
2023-03-05T07:34:41.517Z,99.90
2023-03-05T07:37:09.972Z,99.90
2023-03-05T07:39:38.382Z,99.90
2023-03-05T07:42:07.013Z,99.90
2023-03-05T07:44:35.538Z,99.90
2023-03-05T07:47:04.012Z,99.90
2023-03-05T07:49:33.828Z,99.90
2023-03-05T07:52:02.423Z,99.90
2023-03-05T07:54:30.824Z,99.90
2023-03-05T07:56:59.267Z,99.90
2023-03-05T07:59:27.745Z,99.90
2023-03-05T08:01:56.170Z,99.90
2023-03-05T08:04:24.689Z,99.90
2023-03-05T08:06:54.717Z,99.90
2023-03-05T08:09:23.160Z,99.90
2023-03-05T08:11:51.674Z,99.90
2023-03-05T08:14:20.052Z,99.90
2023-03-05T08:16:52.087Z,99.90
2023-03-05T08:19:21.317Z,99.90
2023-03-05T08:21:49.773Z,99.90
2023-03-05T08:24:19.790Z,99.90
2023-03-05T08:26:48.469Z,99.90
2023-03-05T08:29:16.903Z,99.90
2023-03-05T08:31:47.032Z,99.90
2023-03-05T08:34:15.886Z,99.90
2023-03-05T08:36:44.368Z,99.90
2023-03-05T08:39:12.848Z,99.90
2023-03-05T08:41:42.647Z,99.90
2023-03-05T08:44:11.184Z,99.90
2023-03-05T08:46:40.849Z,99.50
2023-03-05T08:49:09.554Z,99.50
2023-03-05T08:51:38.034Z,99.80
2023-03-05T08:54:07.663Z,99.90
2023-03-05T08:56:36.168Z,99.90
2023-03-05T08:59:06.710Z,99.50
2023-03-05T09:01:35.268Z,99.40
2023-03-05T09:04:03.979Z,98.80
2023-03-05T09:06:34.366Z,98.50
2023-03-05T09:09:02.851Z,97.50
2023-03-05T09:11:31.284Z,97.40
2023-03-05T09:14:00.375Z,97.60
2023-03-05T09:16:30.243Z,97.40
2023-03-05T09:18:59.234Z,97.40
2023-03-05T09:21:27.966Z,96.90
2023-03-05T09:23:59.677Z,97.60
2023-03-05T09:26:28.229Z,96.70
2023-03-05T09:28:56.817Z,96.90
2023-03-05T09:31:25.325Z,95.80
2023-03-05T09:33:55.147Z,95.80
2023-03-05T09:36:26.745Z,96.50
2023-03-05T09:38:55.508Z,96.30
2023-03-05T09:41:31.036Z,96.40
2023-03-05T09:44:08.908Z,96.20
2023-03-05T09:46:47.769Z,95.80
2023-03-05T09:49:21.106Z,96.10
2023-03-05T09:51:53.297Z,95.20
2023-03-05T09:54:24.471Z,95.90
2023-03-05T09:56:57.751Z,94.20
2023-03-05T09:59:30.577Z,93.10
2023-03-05T10:02:02.545Z,93.70
2023-03-05T10:04:43.925Z,94.60
2023-03-05T10:07:16.946Z,93.40
2023-03-05T10:09:48.318Z,90.50
2023-03-05T10:12:23.402Z,90.40
2023-03-05T10:14:52.077Z,86.30
2023-03-05T10:18:07.085Z,85.30
2023-03-05T10:20:52.042Z,89.20
2023-03-05T10:23:40.205Z,84.40
2023-03-05T10:26:19.408Z,82.30
2023-03-05T10:28:52.998Z,80.70
2023-03-05T10:31:36.072Z,78.80
2023-03-05T10:34:27.949Z,78.30
2023-03-05T10:37:07.874Z,81.30
2023-03-05T10:39:55.962Z,79.70
2023-03-05T10:42:31.174Z,77.80
2023-03-05T10:45:01.271Z,78.90
2023-03-05T10:47:33.943Z,76.20
2023-03-05T10:50:02.647Z,79.50
2023-03-05T10:52:36.492Z,78.00
2023-03-05T10:55:15.159Z,75.50
2023-03-05T10:57:43.595Z,75.00
2023-03-05T11:00:20.105Z,75.20
2023-03-05T11:03:00.213Z,76.10
2023-03-05T11:05:40.775Z,77.40
2023-03-05T11:08:29.660Z,80.10
2023-03-05T11:11:07.651Z,80.50
2023-03-05T11:13:37.838Z,75.90
2023-03-05T11:16:08.322Z,78.30
2023-03-05T11:18:37.696Z,75.10
2023-03-05T11:21:11.398Z,73.00
2023-03-05T11:23:41.222Z,75.70
2023-03-05T11:26:20.544Z,76.80
2023-03-05T11:29:00.016Z,73.80
2023-03-05T11:31:29.766Z,73.40
2023-03-05T11:34:01.160Z,72.40
2023-03-05T11:36:31.606Z,74.10
2023-03-05T11:39:10.547Z,74.30
2023-03-05T11:41:41.296Z,73.00
2023-03-05T11:44:14.512Z,72.80
2023-03-05T11:46:46.114Z,73.10
2023-03-05T11:49:17.859Z,74.80
2023-03-05T11:51:52.202Z,75.40
2023-03-05T11:54:26.135Z,75.60
2023-03-05T11:56:54.978Z,74.70
2023-03-05T11:59:29.513Z,74.00
2023-03-05T12:01:59.083Z,72.60
2023-03-05T12:04:27.884Z,71.50
2023-03-05T12:06:57.943Z,72.30
2023-03-05T12:09:33.878Z,72.90
2023-03-05T12:12:08.063Z,71.00
2023-03-05T12:14:40.589Z,69.60
2023-03-05T12:17:14.652Z,68.90
2023-03-05T12:19:52.021Z,71.90
2023-03-05T12:22:22.572Z,69.10
2023-03-05T12:24:53.272Z,71.20
2023-03-05T12:27:35.167Z,72.40
2023-03-05T12:30:05.144Z,70.60
2023-03-05T12:33:03.614Z,71.80
2023-03-05T12:35:36.899Z,71.20
2023-03-05T12:38:30.943Z,70.30
2023-03-05T12:41:35.727Z,72.00
2023-03-05T12:44:21.075Z,72.50
2023-03-05T12:47:17.811Z,71.50
2023-03-05T12:49:49.770Z,71.20
2023-03-05T12:52:24.972Z,71.10
2023-03-05T12:55:02.071Z,70.10
2023-03-05T12:57:32.142Z,68.10
2023-03-05T13:00:06.498Z,69.70
2023-03-05T13:02:37.773Z,68.30
2023-03-05T13:05:18.785Z,70.50
2023-03-05T13:07:47.199Z,69.70
2023-03-05T13:10:25.002Z,70.70
2023-03-05T13:12:56.361Z,69.50
2023-03-05T13:15:25.706Z,70.60
2023-03-05T13:17:57.208Z,70.40
2023-03-05T13:20:33.931Z,69.70
2023-03-05T13:23:15.064Z,69.50
2023-03-05T13:25:44.052Z,66.70
2023-03-05T13:28:16.687Z,69.50
2023-03-05T13:30:47.251Z,69.70
2023-03-05T13:33:19.119Z,68.60
2023-03-05T13:35:48.415Z,68.60
2023-03-05T13:38:27.899Z,69.70
2023-03-05T13:41:07.863Z,70.20
2023-03-05T13:43:45.185Z,69.80
2023-03-05T13:46:14.191Z,70.60
2023-03-05T13:48:42.700Z,71.00
2023-03-05T13:51:11.996Z,72.60
2023-03-05T13:53:40.392Z,71.60
2023-03-05T13:56:13.111Z,71.10
2023-03-05T13:58:47.525Z,72.20
2023-03-05T14:01:21.397Z,69.10
2023-03-05T14:03:51.493Z,71.10
2023-03-05T14:06:22.179Z,72.60
2023-03-05T14:08:52.309Z,72.70
2023-03-05T14:11:21.308Z,73.70
2023-03-05T14:13:59.811Z,74.20
2023-03-05T14:16:32.678Z,74.30
2023-03-05T14:19:02.937Z,73.20
2023-03-05T14:21:48.836Z,73.60
2023-03-05T14:24:23.520Z,73.60
2023-03-05T14:26:53.449Z,73.40
2023-03-05T14:29:25.557Z,73.40
2023-03-05T14:31:55.628Z,73.80
2023-03-05T14:34:27.434Z,74.90
2023-03-05T14:36:59.279Z,76.00
2023-03-05T14:39:34.077Z,75.10
2023-03-05T14:42:30.967Z,75.20
2023-03-05T14:45:03.148Z,75.90
2023-03-05T14:47:31.868Z,76.30
2023-03-05T14:50:00.326Z,77.60
2023-03-05T14:52:28.845Z,77.10
2023-03-05T14:54:57.242Z,77.90
2023-03-05T14:57:29.055Z,79.10
2023-03-05T14:59:57.501Z,79.00
2023-03-05T15:02:28.466Z,79.30
2023-03-05T15:04:56.906Z,78.80
2023-03-05T15:07:28.215Z,79.90
2023-03-05T15:09:56.872Z,78.90
2023-03-05T15:12:25.472Z,79.70
2023-03-05T15:14:54.385Z,79.50
2023-03-05T15:17:24.113Z,80.00
2023-03-05T15:19:54.811Z,80.00
2023-03-05T15:22:23.238Z,80.30
2023-03-05T15:24:51.767Z,80.90
2023-03-05T15:27:20.557Z,81.20
2023-03-05T15:29:49.032Z,80.90
2023-03-05T15:32:17.499Z,81.00
2023-03-05T15:34:46.031Z,82.70
2023-03-05T15:37:15.830Z,81.60
2023-03-05T15:39:44.287Z,81.70
2023-03-05T15:42:12.715Z,81.60
2023-03-05T15:44:41.191Z,81.80
2023-03-05T15:47:09.799Z,81.60
2023-03-05T15:49:38.289Z,81.90
2023-03-05T15:52:06.771Z,82.30
2023-03-05T15:54:37.986Z,81.70
2023-03-05T15:57:10.649Z,81.70
2023-03-05T15:59:39.128Z,81.60
2023-03-05T16:02:07.898Z,82.00
2023-03-05T16:04:36.409Z,82.40
2023-03-05T16:07:05.313Z,82.30
2023-03-05T16:09:37.905Z,82.80
2023-03-05T16:12:10.758Z,83.20
2023-03-05T16:14:39.865Z,84.00
2023-03-05T16:17:08.681Z,84.50
2023-03-05T16:19:40.609Z,84.60
2023-03-05T16:22:09.031Z,85.20
2023-03-05T16:24:38.896Z,85.50
2023-03-05T16:27:07.372Z,85.60
2023-03-05T16:29:35.834Z,86.10
2023-03-05T16:32:05.120Z,86.30
2023-03-05T16:34:34.470Z,86.50
2023-03-05T16:37:04.631Z,86.70
2023-03-05T16:39:33.164Z,87.00
2023-03-05T16:42:04.865Z,87.40
2023-03-05T16:44:33.324Z,87.60
2023-03-05T16:47:01.891Z,88.00
2023-03-05T16:49:30.364Z,88.40
2023-03-05T16:52:01.368Z,88.80
2023-03-05T16:54:36.944Z,89.10
2023-03-05T16:57:07.189Z,89.60
2023-03-05T16:59:36.055Z,90.00
2023-03-05T17:02:05.161Z,90.10
2023-03-05T17:04:34.741Z,90.40
2023-03-05T17:07:04.208Z,90.60
2023-03-05T17:09:32.789Z,90.70
2023-03-05T17:12:01.364Z,90.70
2023-03-05T17:14:31.276Z,90.90
2023-03-05T17:17:01.223Z,91.10
2023-03-05T17:19:29.782Z,91.10
2023-03-05T17:21:58.275Z,91.10
2023-03-05T17:24:26.831Z,91.20
2023-03-05T17:26:55.385Z,91.30
2023-03-05T17:29:24.015Z,91.40
2023-03-05T17:31:54.133Z,91.70
2023-03-05T17:34:33.380Z,91.90
2023-03-05T17:37:04.048Z,92.10
2023-03-05T17:39:32.567Z,92.40
2023-03-05T17:42:01.696Z,92.50
2023-03-05T17:44:30.163Z,92.70
2023-03-05T17:47:00.120Z,92.90
2023-03-05T17:49:28.713Z,93.10
2023-03-05T17:51:57.474Z,93.20
2023-03-05T17:54:25.961Z,93.40
2023-03-05T17:56:55.587Z,93.70
2023-03-05T17:59:24.392Z,93.80
2023-03-05T18:01:52.864Z,93.90
2023-03-05T18:04:22.750Z,94.10
2023-03-05T18:06:51.250Z,94.30
2023-03-05T18:09:20.077Z,94.40
2023-03-05T18:11:48.920Z,94.60
2023-03-05T18:14:17.405Z,94.90
2023-03-05T18:16:46.143Z,95.10
2023-03-05T18:19:14.624Z,95.20
2023-03-05T18:21:44.488Z,95.50
2023-03-05T18:24:13.013Z,95.80
2023-03-05T18:26:41.468Z,96.00
2023-03-05T18:29:09.885Z,96.30
2023-03-05T18:31:38.396Z,96.60
2023-03-05T18:34:06.885Z,96.90
2023-03-05T18:36:35.253Z,97.30
2023-03-05T18:39:05.283Z,97.70
2023-03-05T18:41:33.801Z,98.00
2023-03-05T18:44:04.506Z,98.20
2023-03-05T18:46:33.067Z,98.40
2023-03-05T18:49:01.684Z,99.10
2023-03-05T18:51:30.458Z,98.80
2023-03-05T18:53:59.071Z,98.90
2023-03-05T18:56:28.949Z,99.30
2023-03-05T18:58:58.886Z,99.40
2023-03-05T19:01:27.491Z,99.80
2023-03-05T19:03:56.668Z,99.90
2023-03-05T19:06:25.212Z,99.90
2023-03-05T19:08:57.508Z,99.90
2023-03-05T19:11:26.398Z,99.90
2023-03-05T19:13:57.042Z,99.90
2023-03-05T19:16:29.306Z,99.90
2023-03-05T19:19:06.346Z,99.90
2023-03-05T19:21:34.839Z,99.90
2023-03-05T19:24:03.512Z,99.90
2023-03-05T19:26:32.050Z,99.90
2023-03-05T19:29:03.712Z,99.90
2023-03-05T19:31:32.151Z,99.90
2023-03-05T19:34:01.232Z,99.90
2023-03-05T19:36:29.749Z,99.90
2023-03-05T19:38:58.369Z,99.90
2023-03-05T19:41:27.738Z,99.90
2023-03-05T19:43:56.168Z,99.90
2023-03-05T19:46:25.981Z,99.90
2023-03-05T19:48:54.463Z,99.90
2023-03-05T19:51:24.690Z,99.90
2023-03-05T19:53:53.758Z,99.90
2023-03-05T19:56:22.170Z,99.90
2023-03-05T19:58:50.792Z,99.90
2023-03-05T20:01:21.018Z,99.90
2023-03-05T20:03:52.047Z,99.90
2023-03-05T20:06:21.411Z,99.90
2023-03-05T20:08:50.362Z,99.90
2023-03-05T20:11:20.033Z,99.90
2023-03-05T20:13:48.641Z,99.90
2023-03-05T20:16:17.971Z,99.90
2023-03-05T20:18:47.257Z,99.90
2023-03-05T20:21:21.472Z,99.90
2023-03-05T20:23:50.351Z,99.90
2023-03-05T20:26:19.092Z,99.90
2023-03-05T20:28:48.082Z,99.90
2023-03-05T20:31:19.969Z,99.90
2023-03-05T20:33:48.482Z,99.90
2023-03-05T20:36:18.563Z,99.90
2023-03-05T20:38:47.543Z,99.90
2023-03-05T20:41:17.911Z,99.90
2023-03-05T20:43:48.844Z,99.90
2023-03-05T20:46:19.074Z,99.90
2023-03-05T20:48:49.545Z,99.90
2023-03-05T20:51:22.780Z,99.90
2023-03-05T20:53:51.550Z,99.90
2023-03-05T20:56:20.039Z,99.90
2023-03-05T20:58:48.540Z,99.90
2023-03-05T21:01:17.014Z,99.90
2023-03-05T21:03:45.553Z,99.90
2023-03-05T21:06:14.292Z,99.90
2023-03-05T21:08:44.818Z,99.90
2023-03-05T21:11:14.102Z,99.90
2023-03-05T21:13:44.244Z,99.90
2023-03-05T21:16:15.671Z,99.90
2023-03-05T21:18:44.202Z,99.90
2023-03-05T21:21:12.817Z,99.90
2023-03-05T21:23:41.312Z,99.90
2023-03-05T21:26:12.580Z,99.90
2023-03-05T21:28:42.216Z,99.90
2023-03-05T21:31:14.390Z,99.90
2023-03-05T21:33:43.196Z,99.90
2023-03-05T21:36:11.938Z,99.90
2023-03-05T21:38:40.645Z,99.90
2023-03-05T21:41:11.842Z,99.90
2023-03-05T21:43:40.252Z,99.90
2023-03-05T21:46:08.769Z,99.90
2023-03-05T21:48:38.334Z,99.90
2023-03-05T21:51:13.693Z,99.90
2023-03-05T21:53:42.256Z,99.90
2023-03-05T21:56:22.401Z,99.90
2023-03-05T21:58:51.342Z,99.90
2023-03-05T22:01:21.209Z,99.90
2023-03-05T22:03:50.911Z,99.90
2023-03-05T22:06:20.525Z,99.90
2023-03-05T22:08:49.089Z,99.90
2023-03-05T22:11:20.842Z,99.90
2023-03-05T22:13:49.470Z,99.90
2023-03-05T22:16:24.925Z,99.90
2023-03-05T22:18:53.823Z,99.90
2023-03-05T22:21:25.745Z,99.90
2023-03-05T22:23:56.948Z,99.90
2023-03-05T22:26:27.972Z,99.90
2023-03-05T22:28:57.420Z,99.90
2023-03-05T22:31:27.560Z,99.90
2023-03-05T22:33:56.143Z,99.90
2023-03-05T22:36:24.681Z,99.90
2023-03-05T22:38:53.372Z,99.90
2023-03-05T22:41:22.296Z,99.90
2023-03-05T22:43:52.569Z,99.90
2023-03-05T22:46:23.213Z,99.90
2023-03-05T22:48:52.257Z,99.90
2023-03-05T22:51:21.344Z,99.90
2023-03-05T22:53:49.793Z,99.90
2023-03-05T22:56:19.466Z,99.90
2023-03-05T22:58:48.028Z,99.90
2023-03-05T23:01:19.333Z,99.90
2023-03-05T23:03:53.334Z,99.90
2023-03-05T23:06:22.002Z,99.90
2023-03-05T23:08:50.693Z,99.90
2023-03-05T23:11:19.143Z,99.90
2023-03-05T23:13:47.642Z,99.90
2023-03-05T23:16:17.569Z,99.90
2023-03-05T23:18:46.064Z,99.90
2023-03-05T23:21:14.589Z,99.90
2023-03-05T23:23:43.044Z,99.90
2023-03-05T23:26:11.509Z,99.90
2023-03-05T23:28:39.917Z,99.90
2023-03-05T23:31:08.412Z,99.90
2023-03-05T23:33:38.458Z,99.90
2023-03-05T23:36:07.239Z,99.90
2023-03-05T23:38:36.617Z,99.90
2023-03-05T23:41:09.461Z,99.90
2023-03-05T23:43:38.028Z,99.90
2023-03-05T23:46:11.761Z,99.90
2023-03-05T23:48:41.918Z,99.90
2023-03-05T23:51:11.286Z,99.90
2023-03-05T23:53:39.816Z,99.90
2023-03-05T23:56:12.582Z,99.90
2023-03-05T23:58:42.662Z,99.90
